WetterOnline ( https://www.wetteronline.ch )

Wetter aktuell Freiburg im Breisgau

Aktuelles Wetter: Freiburg/Flugplatz (236m)

6-stündlich | Neueste Meldungen
Ortszeit Temperatur Wetter
Mi, 11.12. 7:00 -2.0° C bedeckt
Mi, 11.12. 1:00 -2.9° C wolkig
Di, 10.12. 19:00 0.8° C wolkenlos
Di, 10.12. 13:00 6.0° C wolkenlos
Di, 10.12. 7:00 1.5° C bedeckt
Di, 10.12. 1:00 5.5° C bewölkt
Mo, 09.12. 19:00 7.0° C bedeckt
Mo, 09.12. 13:00 7.8° C Sprühregen
Ortszeit Temperatur Wetter
Mi, 11.12. 10:30 1.3° C wolkig
Mi, 11.12. 10:20 1.3° C wolkig
Mi, 11.12. 10:10 1.2° C bedeckt
Mi, 11.12. 10:00 0.8° C bewölkt
Mi, 11.12. 9:50 0.8° C bewölkt
Mi, 11.12. 9:40 0.8° C bewölkt
Mi, 11.12. 9:30 0.9° C bewölkt
Mi, 11.12. 9:00 -0.5° C bedeckt
Mi, 11.12. 8:30 -0.6° C bedeckt
Mi, 11.12. 8:00 -1.3° C bedeckt
Mi, 11.12. 7:30 -1.3° C bewölkt
Ortszeit Relative Feuchte Sichtweite
Mi, 11.12. 7:00 91% 25 km
Mi, 11.12. 1:00 95% 12 km
Di, 10.12. 19:00 82% 45 km
Di, 10.12. 13:00 65% 30 km
Di, 10.12. 7:00 95% 20 km
Di, 10.12. 1:00 79% 60 km
Mo, 09.12. 19:00 78% 70 km
Mo, 09.12. 13:00 74% 70 km
Ortszeit Relative Feuchte Sichtweite
Mi, 11.12. 10:30 83% 28 km
Mi, 11.12. 10:20 83% -
Mi, 11.12. 10:10 84% -
Mi, 11.12. 10:00 86% 24 km
Mi, 11.12. 9:50 86% -
Mi, 11.12. 9:40 86% -
Mi, 11.12. 9:30 84% 17 km
Mi, 11.12. 9:00 87% 14 km
Mi, 11.12. 8:30 88% 25 km
Mi, 11.12. 8:00 92% 26 km
Mi, 11.12. 7:30 90% 12 km
Ortszeit Niederschlagsmenge Niederschlagsart
Mi, 11.12. 7:00 0.0 l/m2 in 12 Std. -
Mi, 11.12. 1:00 0.0 l/m2 in 6 Std. -
Di, 10.12. 19:00 0.0 l/m2 in 12 Std. -
Di, 10.12. 13:00 0.0 l/m2 in 6 Std. -
Di, 10.12. 7:00 2 l/m2 in 12 Std. -
Di, 10.12. 1:00 2 l/m2 in 6 Std. Regen
Mo, 09.12. 19:00 1 l/m2 in 12 Std. Regen
Mo, 09.12. 13:00 0.1 l/m2 in 6 Std. Regen
Ortszeit Niederschlagsmenge Niederschlagsart
Mi, 11.12. 10:30 0.0 l/m2 in 1 Std. -
Mi, 11.12. 10:20 keine Meldung -
Mi, 11.12. 10:10 keine Meldung -
Mi, 11.12. 10:00 0.0 l/m2 in 1 Std. -
Mi, 11.12. 9:50 keine Meldung -
Mi, 11.12. 9:40 keine Meldung -
Mi, 11.12. 9:30 0.0 l/m2 in 1 Std. -
Mi, 11.12. 9:00 0.0 l/m2 in 1 Std. -
Mi, 11.12. 8:30 0.0 l/m2 in 1 Std. -
Mi, 11.12. 8:00 0.0 l/m2 in 1 Std. -
Mi, 11.12. 7:30 0.0 l/m2 in 1 Std. -
Ortszeit Stärke Spitze Richtung
km/h Bft. km/h Grad Sektor
Mi, 11.12. 7:00 4 1 7 30° NO
Mi, 11.12. 1:00 0 0 18 - -
Di, 10.12. 19:00 4 1 18 140° SO
Di, 10.12. 13:00 7 2 22 240° SW
Di, 10.12. 7:00 0 0 29 - -
Di, 10.12. 1:00 13 3 39 330° NW
Mo, 09.12. 19:00 7 2 50 270° W
Mo, 09.12. 13:00 30 5 61 220° SW
Ortszeit Stärke Spitze Richtung
km/h Bft. km/h Grad Sektor
Mi, 11.12. 10:30 4 1 7 320° NW
Mi, 11.12. 10:20 4 1 - 320° NW
Mi, 11.12. 10:10 4 1 - 300° NW
Mi, 11.12. 10:00 4 1 7 10° N
Mi, 11.12. 9:50 4 1 - 10° N
Mi, 11.12. 9:40 2 1 - 320° NW
Mi, 11.12. 9:30 4 1 7 110° O
Mi, 11.12. 9:00 2 1 9 100° O
Mi, 11.12. 8:30 4 1 11 260° W
Mi, 11.12. 8:00 4 1 4 300° NW
Mi, 11.12. 7:30 4 1 4 10° N
Ortszeit Untergrenze Bedeckung Gattung
total tief tief mittel hoch
Mi, 11.12. 7:00 3000 m 8/8 8/8 - - -
Mi, 11.12. 1:00 9000 m 8/8 0/8 - - -
Di, 10.12. 19:00 - 0/8 0/8 - - -
Di, 10.12. 13:00 - 0/8 0/8 - - -
Di, 10.12. 7:00 1800 m 8/8 8/8 - - -
Di, 10.12. 1:00 840 m 7/8 7/8 - - -
Mo, 09.12. 19:00 870 m 8/8 8/8 - - -
Mo, 09.12. 13:00 630 m 7/8 7/8 - - -
Ortszeit Bedeckungsgrad in Achtel und Wolkenuntergrenze
Mi, 11.12. 10:30 2(1800m) 8(3000m) 8(3900m)
Mi, 11.12. 10:20 2(1800m) 8(3000m) 8(3900m)
Mi, 11.12. 10:10 4(1800m) 8(2700m) 8(4200m)
Mi, 11.12. 10:00 2(1800m) 7(2100m) 8(5400m)
Mi, 11.12. 9:50 2(1800m) 7(2100m) 8(5400m)
Mi, 11.12. 9:40 7(2100m) 7(3300m) 8(5400m)
Mi, 11.12. 9:30 4(2400m) 8(3300m) 8(4800m)
Mi, 11.12. 9:00 8(2400m) 8(3000m) 8(4500m)
Mi, 11.12. 8:30 8(2400m) 8(4500m) 8(6000m)
Mi, 11.12. 8:00 8(2700m) 8(3600m) 8(4500m)
Mi, 11.12. 7:30 6(2700m) 8(3600m) 8(3900m)
Ortszeit Luftdruck NN (hPa) Tendenz (hPa in 3 Std.)
Mi, 11.12. 7:00 1017 - 2,1
Mi, 11.12. 1:00 1022 - 2,7
Di, 10.12. 19:00 1026 - 1,1
Di, 10.12. 13:00 1029 - 1,0
Di, 10.12. 7:00 1029 + 2,7
Di, 10.12. 1:00 1022 + 5,3
Mo, 09.12. 19:00 1012 + 5,2
Mo, 09.12. 13:00 1007 - 0,7
Ortszeit Luftdruck NN (hPa) Tendenz (hPa in 3 Std.)
Mi, 11.12. 10:30 1015 - 1,6
Mi, 11.12. 10:20 1015 keine Meldung
Mi, 11.12. 10:10 1015 keine Meldung
Mi, 11.12. 10:00 1015 - 1,8
Mi, 11.12. 9:50 1015 keine Meldung
Mi, 11.12. 9:40 1015 keine Meldung
Mi, 11.12. 9:30 1016 - 1,8
Mi, 11.12. 9:00 1016 - 2,0
Mi, 11.12. 8:30 1017 - 1,9
Mi, 11.12. 8:00 1017 - 1,7
Mi, 11.12. 7:30 1017 - 1,9
Ortszeit Schneehöhe (cm)
Mi, 11.12. 7:00 0
Mi, 11.12. 1:00 0
Di, 10.12. 19:00 0
Di, 10.12. 13:00 0
Di, 10.12. 7:00 0
Di, 10.12. 1:00 0
Mo, 09.12. 19:00 0
Mo, 09.12. 13:00 0
Ortszeit Schneehöhe (cm)
Mi, 11.12. 10:30 0
Mi, 11.12. 10:20 0
Mi, 11.12. 10:10 0
Mi, 11.12. 10:00 0
Mi, 11.12. 9:50 0
Mi, 11.12. 9:40 0
Mi, 11.12. 9:30 0
Mi, 11.12. 9:00 0
Mi, 11.12. 8:30 0
Mi, 11.12. 8:00 0
Mi, 11.12. 7:30 0
Link zu dieser Seite / Seite empfehlen

Das Wetter in ...